createdAt,value
2023-03-30T00:01:04.718Z,8.75
2023-03-30T00:03:33.322Z,8.65
2023-03-30T00:06:05.329Z,8.87
2023-03-30T00:08:33.577Z,9.21
2023-03-30T00:11:02.158Z,9.05
2023-03-30T00:13:31.801Z,8.68
2023-03-30T00:15:59.393Z,8.73
2023-03-30T00:18:27.382Z,8.78
2023-03-30T00:20:54.877Z,8.55
2023-03-30T00:23:22.426Z,8.64
2023-03-30T00:25:49.998Z,8.66
2023-03-30T00:28:17.521Z,8.56
2023-03-30T00:30:47.621Z,8.45
2023-03-30T00:33:15.678Z,8.43
2023-03-30T00:35:43.182Z,8.46
2023-03-30T00:38:10.687Z,8.44
2023-03-30T00:40:38.367Z,8.38
2023-03-30T00:43:07.634Z,8.43
2023-03-30T00:45:35.743Z,8.13
2023-03-30T00:48:08.263Z,8.13
2023-03-30T00:50:40.553Z,8.20
2023-03-30T00:53:16.173Z,8.27
2023-03-30T00:55:46.050Z,7.96
2023-03-30T00:58:15.696Z,8.06
2023-03-30T01:00:47.063Z,8.41
2023-03-30T01:03:21.309Z,8.17
2023-03-30T01:05:50.028Z,8.34
2023-03-30T01:08:18.285Z,8.27
2023-03-30T01:10:45.933Z,8.32
2023-03-30T01:13:14.467Z,8.30
2023-03-30T01:15:53.365Z,8.23
2023-03-30T01:18:33.166Z,8.16
2023-03-30T01:21:55.623Z,7.94
2023-03-30T01:24:53.213Z,8.13
2023-03-30T01:27:54.932Z,8.24
2023-03-30T01:30:36.210Z,8.30
2023-03-30T01:33:23.398Z,8.27
2023-03-30T01:36:31.764Z,8.30
2023-03-30T01:39:19.083Z,8.43
2023-03-30T01:41:55.849Z,8.49
2023-03-30T01:44:33.299Z,8.70
2023-03-30T01:47:08.586Z,8.63
2023-03-30T01:49:41.708Z,8.80
2023-03-30T01:52:16.133Z,8.94
2023-03-30T01:54:49.049Z,8.65
2023-03-30T01:57:19.546Z,8.27
2023-03-30T01:59:55.125Z,8.28
2023-03-30T02:02:25.378Z,8.34
2023-03-30T02:04:54.620Z,8.22
2023-03-30T02:07:26.040Z,8.16
2023-03-30T02:09:59.164Z,8.17
2023-03-30T02:12:30.224Z,8.26
2023-03-30T02:15:02.269Z,8.20
2023-03-30T02:17:31.085Z,8.29
2023-03-30T02:20:00.183Z,8.27
2023-03-30T02:22:29.435Z,8.27
2023-03-30T02:24:58.876Z,8.35
2023-03-30T02:27:27.636Z,8.32
2023-03-30T02:29:56.338Z,8.02
2023-03-30T02:32:27.080Z,8.01
2023-03-30T02:35:22.303Z,8.21
2023-03-30T02:38:19.622Z,8.07
2023-03-30T02:40:57.937Z,8.15
2023-03-30T02:43:38.764Z,8.22
2023-03-30T02:46:20.480Z,8.29
2023-03-30T02:49:01.835Z,8.21
2023-03-30T02:51:40.868Z,8.11
2023-03-30T02:54:19.505Z,7.90
2023-03-30T02:56:55.190Z,7.80
2023-03-30T02:59:28.577Z,8.11
2023-03-30T03:01:59.861Z,8.49
2023-03-30T03:04:29.962Z,9.00
2023-03-30T03:06:57.538Z,9.39
2023-03-30T03:09:25.973Z,9.60
2023-03-30T03:11:54.924Z,9.40
2023-03-30T03:14:22.551Z,9.20
2023-03-30T03:16:50.051Z,9.23
2023-03-30T03:19:17.559Z,9.67
2023-03-30T03:21:45.027Z,9.78
2023-03-30T03:24:13.652Z,9.88
2023-03-30T03:26:41.134Z,10.02
2023-03-30T03:29:10.133Z,9.74
2023-03-30T03:31:38.007Z,9.46
2023-03-30T03:34:05.680Z,9.10
2023-03-30T03:36:33.432Z,8.90
2023-03-30T03:39:00.994Z,8.67
2023-03-30T03:41:28.474Z,8.50
2023-03-30T03:43:56.975Z,8.41
2023-03-30T03:46:25.884Z,8.39
2023-03-30T03:48:53.398Z,8.37
2023-03-30T03:51:21.137Z,8.66
2023-03-30T03:53:49.667Z,8.68
2023-03-30T03:56:17.151Z,8.61
2023-03-30T03:58:44.642Z,8.79
2023-03-30T04:01:14.352Z,8.54
2023-03-30T04:03:43.668Z,8.29
2023-03-30T04:06:11.238Z,8.21
2023-03-30T04:08:38.798Z,8.32
2023-03-30T04:11:07.802Z,8.37
2023-03-30T04:13:35.507Z,8.73
2023-03-30T04:16:03.107Z,9.01
2023-03-30T04:18:33.286Z,9.05
2023-03-30T04:21:05.192Z,9.45
2023-03-30T04:23:34.130Z,9.85
2023-03-30T04:26:02.648Z,9.91
2023-03-30T04:28:31.691Z,10.39
2023-03-30T04:31:00.216Z,10.65
2023-03-30T04:33:28.041Z,10.69
2023-03-30T04:35:55.601Z,10.45
2023-03-30T04:38:24.406Z,9.78
2023-03-30T04:40:53.052Z,9.40
2023-03-30T04:43:21.546Z,8.87
2023-03-30T04:45:50.701Z,8.66
2023-03-30T04:48:19.465Z,8.94
2023-03-30T04:50:49.234Z,9.06
2023-03-30T04:53:18.653Z,9.18
2023-03-30T04:55:51.604Z,9.45
2023-03-30T04:58:19.407Z,9.72
2023-03-30T05:00:47.357Z,9.93
2023-03-30T05:03:14.947Z,10.22
2023-03-30T05:05:43.010Z,10.16
2023-03-30T05:08:10.494Z,10.13
2023-03-30T05:10:37.965Z,10.15
2023-03-30T05:13:06.828Z,10.68
2023-03-30T05:15:34.287Z,10.34
2023-03-30T05:18:01.792Z,10.75
2023-03-30T05:20:29.315Z,11.02
2023-03-30T05:22:56.770Z,11.26
2023-03-30T05:25:24.254Z,11.33
2023-03-30T05:27:51.903Z,11.07
2023-03-30T05:30:20.747Z,11.38
2023-03-30T05:32:48.227Z,11.46
2023-03-30T05:35:15.716Z,11.74
2023-03-30T05:37:43.168Z,12.13
2023-03-30T05:40:11.638Z,12.05
2023-03-30T05:42:39.100Z,12.09
2023-03-30T05:45:07.998Z,12.31
2023-03-30T05:47:36.872Z,12.51
2023-03-30T05:50:04.619Z,12.46
2023-03-30T05:52:32.449Z,12.61
2023-03-30T05:54:59.903Z,12.34
2023-03-30T05:57:27.490Z,12.23
2023-03-30T05:59:54.976Z,12.29
2023-03-30T06:02:22.525Z,12.33
2023-03-30T06:04:52.190Z,12.54
2023-03-30T06:07:20.706Z,12.62
2023-03-30T06:09:48.275Z,12.60
2023-03-30T06:12:15.752Z,12.94
2023-03-30T06:14:43.234Z,13.14
2023-03-30T06:17:12.129Z,13.41
2023-03-30T06:19:40.042Z,13.55
2023-03-30T06:22:09.413Z,13.36
2023-03-30T06:24:37.262Z,13.27
2023-03-30T06:27:04.765Z,13.52
2023-03-30T06:29:32.309Z,13.83
2023-03-30T06:31:59.933Z,13.26
2023-03-30T06:34:27.470Z,13.50
2023-03-30T06:36:54.936Z,13.66
2023-03-30T06:39:25.400Z,14.00
2023-03-30T06:41:52.882Z,13.82
2023-03-30T06:44:20.543Z,13.80
2023-03-30T06:46:48.020Z,13.50
2023-03-30T06:49:15.570Z,13.27
2023-03-30T06:51:43.159Z,13.03
2023-03-30T06:54:10.801Z,12.60
2023-03-30T06:56:40.055Z,12.18
2023-03-30T06:59:07.602Z,11.62
2023-03-30T07:01:35.250Z,11.50
2023-03-30T07:04:02.774Z,11.25
2023-03-30T07:06:30.271Z,11.30
2023-03-30T07:08:57.729Z,11.38
2023-03-30T07:11:26.166Z,11.38
2023-03-30T07:13:56.251Z,11.20
2023-03-30T07:16:23.777Z,11.13
2023-03-30T07:18:52.052Z,11.27
2023-03-30T07:21:19.608Z,11.52
2023-03-30T07:23:47.066Z,11.93
2023-03-30T07:26:14.555Z,12.28
2023-03-30T07:28:42.009Z,12.65
2023-03-30T07:31:13.774Z,12.56
2023-03-30T07:33:41.942Z,12.59
2023-03-30T07:36:10.104Z,12.38
2023-03-30T07:38:37.757Z,12.40
2023-03-30T07:41:09.202Z,12.01
2023-03-30T07:43:36.768Z,11.85
2023-03-30T07:46:04.849Z,11.98
2023-03-30T07:48:33.867Z,11.87
2023-03-30T07:51:02.876Z,11.84
2023-03-30T07:53:30.723Z,11.70
2023-03-30T07:55:58.186Z,11.64
2023-03-30T07:58:26.566Z,11.88
2023-03-30T08:00:54.804Z,12.19
2023-03-30T08:03:23.110Z,11.81
2023-03-30T08:05:56.040Z,11.71
2023-03-30T08:08:24.028Z,11.60
2023-03-30T08:10:51.826Z,11.46
2023-03-30T08:13:21.687Z,11.58
2023-03-30T08:15:50.636Z,11.77
2023-03-30T08:18:18.168Z,11.64
2023-03-30T08:20:45.782Z,11.45
2023-03-30T08:23:14.570Z,11.41
2023-03-30T08:25:42.650Z,11.69
2023-03-30T08:28:11.192Z,12.21
2023-03-30T08:30:38.717Z,12.39
2023-03-30T08:33:06.242Z,12.56
2023-03-30T08:35:33.818Z,12.27
2023-03-30T08:38:01.337Z,12.33
2023-03-30T08:40:30.138Z,12.30
2023-03-30T08:43:11.671Z,11.85
2023-03-30T08:45:42.846Z,11.88
2023-03-30T08:48:19.376Z,11.70
2023-03-30T08:50:54.165Z,11.90
2023-03-30T08:53:22.097Z,12.12
2023-03-30T08:55:54.840Z,12.11
2023-03-30T08:58:33.020Z,12.13
2023-03-30T09:01:09.101Z,12.00
2023-03-30T09:03:41.765Z,11.80
2023-03-30T09:06:17.154Z,12.06
2023-03-30T09:08:45.002Z,11.81
2023-03-30T09:11:18.794Z,11.71
2023-03-30T09:13:47.602Z,12.18
2023-03-30T09:16:19.911Z,12.19
2023-03-30T09:18:52.115Z,12.28
2023-03-30T09:21:22.307Z,12.24
2023-03-30T09:23:50.030Z,12.29
2023-03-30T09:26:28.376Z,12.15
2023-03-30T09:29:01.037Z,12.14
2023-03-30T09:31:34.289Z,12.48
2023-03-30T09:34:07.156Z,12.43
2023-03-30T09:36:40.758Z,12.85
2023-03-30T09:39:12.377Z,13.47
2023-03-30T09:41:54.686Z,13.81
2023-03-30T09:44:28.086Z,13.56
2023-03-30T09:46:59.479Z,11.07
2023-03-30T09:49:29.189Z,11.43
2023-03-30T09:52:03.680Z,12.16
2023-03-30T09:54:38.991Z,12.52
2023-03-30T09:57:24.873Z,13.06
2023-03-30T09:59:55.724Z,13.30
2023-03-30T10:02:25.792Z,13.77
2023-03-30T10:05:00.284Z,14.02
2023-03-30T10:07:30.121Z,14.04
2023-03-30T10:09:59.961Z,13.99
2023-03-30T10:12:30.796Z,13.94
2023-03-30T10:15:04.086Z,14.07
2023-03-30T10:17:32.213Z,14.21
2023-03-30T10:20:22.215Z,14.76
2023-03-30T10:22:52.312Z,14.85
2023-03-30T10:25:23.674Z,14.90
2023-03-30T10:27:55.744Z,14.85
2023-03-30T10:30:27.776Z,14.38
2023-03-30T10:32:58.102Z,14.39
2023-03-30T10:35:27.984Z,14.05
2023-03-30T10:37:58.569Z,13.71
2023-03-30T10:40:33.310Z,13.49
2023-03-30T10:43:02.326Z,13.55
2023-03-30T10:45:38.045Z,13.52
2023-03-30T10:48:22.378Z,13.57
2023-03-30T10:50:57.270Z,13.96
2023-03-30T10:53:35.652Z,14.60
2023-03-30T10:56:12.669Z,15.18
2023-03-30T10:58:53.659Z,15.34
2023-03-30T11:01:26.573Z,15.42
2023-03-30T11:04:02.715Z,15.80
2023-03-30T11:06:39.042Z,15.71
2023-03-30T11:09:12.335Z,15.45
2023-03-30T11:11:42.757Z,14.88
2023-03-30T11:14:16.483Z,15.25
2023-03-30T11:16:52.029Z,15.33
2023-03-30T11:19:23.600Z,14.63
2023-03-30T11:21:59.264Z,14.41
2023-03-30T11:24:29.053Z,14.53
2023-03-30T11:27:02.317Z,14.26
2023-03-30T11:29:37.553Z,14.12
2023-03-30T11:32:17.977Z,13.99
2023-03-30T11:34:55.866Z,14.01
2023-03-30T11:37:29.793Z,13.91
2023-03-30T11:40:08.335Z,13.73
2023-03-30T11:42:37.929Z,13.90
2023-03-30T11:45:18.565Z,14.27
2023-03-30T11:48:03.549Z,14.19
2023-03-30T11:50:45.918Z,13.93
2023-03-30T11:53:25.113Z,14.21
2023-03-30T11:56:02.917Z,14.47
2023-03-30T11:58:36.501Z,14.63
2023-03-30T12:01:27.247Z,14.75
2023-03-30T12:04:00.281Z,14.95
2023-03-30T12:06:31.571Z,15.41
2023-03-30T12:09:20.160Z,15.06
2023-03-30T12:11:52.080Z,14.88
2023-03-30T12:14:41.551Z,14.72
2023-03-30T12:17:25.489Z,15.23
2023-03-30T12:19:58.027Z,14.75
2023-03-30T12:22:34.359Z,14.70
2023-03-30T12:25:08.877Z,14.27
2023-03-30T12:27:38.717Z,14.78
2023-03-30T12:30:25.965Z,15.49
2023-03-30T12:33:03.433Z,15.44
2023-03-30T12:35:53.887Z,15.60
2023-03-30T12:38:25.367Z,16.05
2023-03-30T12:41:14.414Z,15.14
2023-03-30T12:43:54.530Z,15.33
2023-03-30T12:46:30.516Z,14.98
2023-03-30T12:49:08.976Z,15.02
2023-03-30T12:51:58.460Z,14.59
2023-03-30T12:54:42.564Z,14.86
2023-03-30T12:57:22.367Z,14.91
2023-03-30T13:00:08.824Z,15.14
2023-03-30T13:03:01.360Z,15.45
2023-03-30T13:05:34.074Z,15.25
2023-03-30T13:08:05.466Z,15.56
2023-03-30T13:10:43.789Z,15.18
2023-03-30T13:13:22.080Z,15.64
2023-03-30T13:15:52.851Z,15.82
2023-03-30T13:18:34.768Z,15.57
2023-03-30T13:21:18.644Z,15.23
2023-03-30T13:24:04.205Z,15.11
2023-03-30T13:26:42.000Z,15.34
2023-03-30T13:29:11.418Z,14.96
2023-03-30T13:31:53.308Z,15.97
2023-03-30T13:34:33.634Z,15.88
2023-03-30T13:37:15.627Z,16.04
2023-03-30T13:39:53.845Z,15.77
2023-03-30T13:42:36.308Z,15.94
2023-03-30T13:45:15.803Z,16.30
2023-03-30T13:47:57.497Z,16.34
2023-03-30T13:50:28.522Z,16.68
2023-03-30T13:52:59.909Z,16.53
2023-03-30T13:55:33.216Z,16.58
2023-03-30T13:58:04.467Z,16.55
2023-03-30T14:00:40.074Z,17.12
2023-03-30T14:03:32.233Z,16.54
2023-03-30T14:06:03.527Z,16.50
2023-03-30T14:08:35.598Z,16.31
2023-03-30T14:11:07.590Z,15.94
2023-03-30T14:13:37.994Z,15.67
2023-03-30T14:16:07.633Z,15.48
2023-03-30T14:18:35.903Z,15.11
2023-03-30T14:21:06.227Z,14.95
2023-03-30T14:23:37.794Z,15.12
2023-03-30T14:26:13.133Z,14.97
2023-03-30T14:28:42.284Z,15.07
2023-03-30T14:31:17.157Z,15.47
2023-03-30T14:33:46.113Z,15.65
2023-03-30T14:36:16.114Z,15.75
2023-03-30T14:38:47.743Z,15.82
2023-03-30T14:41:17.989Z,15.90
2023-03-30T14:43:51.962Z,15.76
2023-03-30T14:46:19.618Z,16.00
2023-03-30T14:48:50.706Z,15.79
2023-03-30T14:51:27.341Z,15.96
2023-03-30T14:53:57.683Z,16.32
2023-03-30T14:56:25.831Z,16.59
2023-03-30T14:58:54.938Z,16.14
2023-03-30T15:01:30.815Z,15.57
2023-03-30T15:04:00.790Z,15.71
2023-03-30T15:06:30.937Z,15.47
2023-03-30T15:09:02.984Z,15.13
2023-03-30T15:11:34.321Z,15.09
2023-03-30T15:14:08.285Z,15.41
2023-03-30T15:16:38.081Z,15.50
2023-03-30T15:19:13.172Z,15.31
2023-03-30T15:21:41.625Z,15.08
2023-03-30T15:24:16.618Z,15.37
2023-03-30T15:26:47.146Z,15.35
2023-03-30T15:29:16.617Z,15.75
2023-03-30T15:31:44.305Z,15.47
2023-03-30T15:34:16.852Z,15.82
2023-03-30T15:36:45.451Z,16.40
2023-03-30T15:39:22.629Z,16.75
2023-03-30T15:41:59.003Z,16.72
2023-03-30T15:44:26.479Z,15.97
2023-03-30T15:46:57.033Z,15.55
2023-03-30T15:49:31.297Z,15.14
2023-03-30T15:52:02.442Z,15.15
2023-03-30T15:54:38.442Z,15.06
2023-03-30T15:57:08.519Z,14.47
2023-03-30T15:59:40.997Z,13.83
2023-03-30T16:02:16.228Z,13.59
2023-03-30T16:04:43.893Z,13.53
2023-03-30T16:07:17.209Z,13.48
2023-03-30T16:09:46.408Z,13.31
2023-03-30T16:12:16.258Z,13.34
2023-03-30T16:14:43.921Z,13.68
2023-03-30T16:17:12.979Z,12.66
2023-03-30T16:19:41.151Z,12.36
2023-03-30T16:22:09.945Z,12.34
2023-03-30T16:24:37.562Z,12.65
2023-03-30T16:27:07.247Z,12.71
2023-03-30T16:29:34.910Z,12.96
2023-03-30T16:32:02.817Z,12.90
2023-03-30T16:34:30.403Z,12.97
2023-03-30T16:36:57.891Z,13.12
2023-03-30T16:39:27.122Z,13.16
2023-03-30T16:41:55.933Z,13.09
2023-03-30T16:44:25.845Z,13.13
2023-03-30T16:46:53.839Z,12.49
2023-03-30T16:49:23.569Z,12.77
2023-03-30T16:51:51.631Z,12.74
2023-03-30T16:54:30.579Z,12.84
2023-03-30T16:56:59.952Z,12.93
2023-03-30T16:59:32.891Z,12.88
2023-03-30T17:02:01.078Z,13.02
2023-03-30T17:04:28.739Z,12.85
2023-03-30T17:06:56.372Z,12.95
2023-03-30T17:09:24.123Z,12.60
2023-03-30T17:11:51.788Z,12.35
2023-03-30T17:14:20.022Z,12.13
2023-03-30T17:16:48.895Z,12.17
2023-03-30T17:19:16.412Z,12.26
2023-03-30T17:21:44.206Z,12.17
2023-03-30T17:24:12.653Z,11.95
2023-03-30T17:26:40.914Z,11.78
2023-03-30T17:29:08.421Z,11.85
2023-03-30T17:31:36.008Z,11.73
2023-03-30T17:34:06.596Z,11.67
2023-03-30T17:36:34.079Z,11.62
2023-03-30T17:39:04.688Z,12.11
2023-03-30T17:41:33.588Z,11.77
2023-03-30T17:44:01.157Z,12.28
2023-03-30T17:46:29.085Z,11.74
2023-03-30T17:48:57.890Z,11.54
2023-03-30T17:51:26.925Z,11.40
2023-03-30T17:53:54.439Z,11.53
2023-03-30T17:56:22.254Z,11.76
2023-03-30T17:58:50.001Z,11.67
2023-03-30T18:01:17.505Z,11.47
2023-03-30T18:03:45.342Z,11.36
2023-03-30T18:06:13.610Z,11.25
2023-03-30T18:08:42.951Z,11.20
2023-03-30T18:11:10.538Z,11.06
2023-03-30T18:13:38.084Z,11.42
2023-03-30T18:16:06.030Z,11.62
2023-03-30T18:18:33.626Z,11.65
2023-03-30T18:21:03.942Z,11.19
2023-03-30T18:23:34.311Z,11.35
2023-03-30T18:26:06.437Z,11.20
2023-03-30T18:28:39.145Z,11.23
2023-03-30T18:31:08.531Z,11.12
2023-03-30T18:33:36.096Z,11.13
2023-03-30T18:36:06.003Z,11.28
2023-03-30T18:38:34.134Z,11.10
2023-03-30T18:41:02.963Z,11.26
2023-03-30T18:43:30.698Z,11.65
2023-03-30T18:46:01.764Z,11.98
2023-03-30T18:48:29.841Z,11.98
2023-03-30T18:50:57.506Z,12.03
2023-03-30T18:53:26.750Z,12.04
2023-03-30T18:55:57.357Z,12.04
2023-03-30T18:58:28.263Z,11.97
2023-03-30T19:00:56.982Z,11.83
2023-03-30T19:03:27.201Z,11.91
2023-03-30T19:05:55.463Z,12.02
2023-03-30T19:08:24.992Z,11.67
2023-03-30T19:10:54.794Z,11.86
2023-03-30T19:13:23.465Z,11.87
2023-03-30T19:15:53.323Z,11.37
2023-03-30T19:18:21.083Z,11.35
2023-03-30T19:20:49.756Z,11.46
2023-03-30T19:23:18.291Z,11.45
2023-03-30T19:25:46.284Z,11.48
2023-03-30T19:28:14.894Z,11.63
2023-03-30T19:30:42.708Z,11.88
2023-03-30T19:33:14.813Z,11.69
2023-03-30T19:35:43.031Z,11.51
2023-03-30T19:38:10.825Z,11.31
2023-03-30T19:40:38.845Z,11.69
2023-03-30T19:43:06.920Z,11.21
2023-03-30T19:45:34.591Z,11.04
2023-03-30T19:48:02.167Z,11.31
2023-03-30T19:50:31.626Z,11.12
2023-03-30T19:52:59.923Z,11.25
2023-03-30T19:55:27.531Z,11.15
2023-03-30T19:57:55.228Z,11.15
2023-03-30T20:00:22.807Z,11.22
2023-03-30T20:02:52.490Z,11.02
2023-03-30T20:05:21.918Z,10.73
2023-03-30T20:07:51.633Z,11.10
2023-03-30T20:10:21.328Z,11.25
2023-03-30T20:12:49.445Z,10.98
2023-03-30T20:15:17.734Z,11.01
2023-03-30T20:17:45.514Z,10.96
2023-03-30T20:20:17.025Z,11.29
2023-03-30T20:22:45.420Z,10.93
2023-03-30T20:25:16.578Z,10.67
2023-03-30T20:27:44.043Z,10.50
2023-03-30T20:30:12.585Z,10.65
2023-03-30T20:32:40.556Z,10.52
2023-03-30T20:35:08.791Z,10.59
2023-03-30T20:37:36.315Z,10.87
2023-03-30T20:40:04.880Z,10.98
2023-03-30T20:42:33.784Z,10.92
2023-03-30T20:45:01.628Z,10.60
2023-03-30T20:47:31.256Z,11.16
2023-03-30T20:49:59.324Z,10.65
2023-03-30T20:52:27.100Z,10.85
2023-03-30T20:54:54.676Z,11.03
2023-03-30T20:57:22.841Z,10.59
2023-03-30T20:59:53.272Z,10.43
2023-03-30T21:02:21.381Z,10.56
2023-03-30T21:04:49.413Z,10.97
2023-03-30T21:07:17.849Z,11.02
2023-03-30T21:09:45.786Z,11.16
2023-03-30T21:12:13.275Z,11.37
2023-03-30T21:14:40.769Z,11.03
2023-03-30T21:17:09.731Z,10.65
2023-03-30T21:19:37.520Z,10.29
2023-03-30T21:22:05.479Z,10.24
2023-03-30T21:24:34.206Z,10.44
2023-03-30T21:27:01.672Z,10.88
2023-03-30T21:29:29.162Z,10.93
2023-03-30T21:31:57.635Z,10.80
2023-03-30T21:34:26.516Z,10.65
2023-03-30T21:36:54.100Z,10.94
2023-03-30T21:39:21.639Z,10.36
2023-03-30T21:41:49.195Z,10.59
2023-03-30T21:44:16.656Z,10.57
2023-03-30T21:46:44.182Z,10.73
2023-03-30T21:49:11.899Z,10.81
2023-03-30T21:51:40.821Z,10.77
2023-03-30T21:54:08.762Z,10.72
2023-03-30T21:56:36.347Z,10.44
2023-03-30T21:59:03.863Z,10.38
2023-03-30T22:01:31.423Z,10.21
2023-03-30T22:03:59.045Z,10.27
2023-03-30T22:06:26.790Z,10.06
2023-03-30T22:08:55.624Z,9.89
2023-03-30T22:11:25.076Z,9.79
2023-03-30T22:13:55.280Z,10.07
2023-03-30T22:16:25.722Z,10.45
2023-03-30T22:18:53.466Z,10.45
2023-03-30T22:21:24.470Z,10.14
2023-03-30T22:23:52.092Z,9.94
2023-03-30T22:26:20.911Z,10.10
2023-03-30T22:28:48.425Z,10.02
2023-03-30T22:31:16.642Z,10.26
2023-03-30T22:33:44.646Z,10.16
2023-03-30T22:36:17.236Z,10.23
2023-03-30T22:38:44.863Z,10.36
2023-03-30T22:41:12.346Z,10.38
2023-03-30T22:43:41.535Z,10.29
2023-03-30T22:46:09.705Z,10.26
2023-03-30T22:48:41.243Z,10.18
2023-03-30T22:51:09.096Z,10.33
2023-03-30T22:53:38.437Z,10.45
2023-03-30T22:56:06.518Z,10.66
2023-03-30T22:58:34.421Z,10.29
2023-03-30T23:01:05.931Z,10.25
2023-03-30T23:03:34.038Z,10.55
2023-03-30T23:06:01.887Z,10.28
2023-03-30T23:08:30.419Z,10.28
2023-03-30T23:11:04.673Z,9.97
2023-03-30T23:13:33.073Z,10.36
2023-03-30T23:16:01.465Z,10.32
2023-03-30T23:18:30.466Z,10.15
2023-03-30T23:20:57.969Z,10.03
2023-03-30T23:23:25.687Z,10.24
2023-03-30T23:25:53.280Z,10.49
2023-03-30T23:28:20.854Z,10.69
2023-03-30T23:30:48.381Z,10.90
2023-03-30T23:33:16.409Z,11.07
2023-03-30T23:35:50.753Z,11.01
2023-03-30T23:38:18.364Z,10.84
2023-03-30T23:40:46.376Z,10.67
2023-03-30T23:43:13.849Z,10.80
2023-03-30T23:45:43.735Z,10.96
2023-03-30T23:48:11.291Z,10.82
2023-03-30T23:50:38.741Z,10.92
2023-03-30T23:53:07.862Z,10.96
2023-03-30T23:55:35.357Z,10.60
2023-03-30T23:58:02.839Z,10.33
